sensor_id;sensor_type;location;lat;lon;timestamp;P1;durP1;ratioP1;P2;durP2;ratioP2
75926;SDS011;64605;48.296;16.416;2023-02-01T00:01:50;3.20;;;2.67;;
75926;SDS011;64605;48.296;16.416;2023-02-01T00:04:16;3.10;;;2.60;;
75926;SDS011;64605;48.296;16.416;2023-02-01T00:06:42;4.32;;;2.65;;
75926;SDS011;64605;48.296;16.416;2023-02-01T00:09:07;4.20;;;2.38;;
75926;SDS011;64605;48.296;16.416;2023-02-01T00:11:33;3.45;;;2.35;;
75926;SDS011;64605;48.296;16.416;2023-02-01T00:13:59;2.70;;;2.13;;
75926;SDS011;64605;48.296;16.416;2023-02-01T00:16:26;4.20;;;2.20;;
75926;SDS011;64605;48.296;16.416;2023-02-01T00:19:12;1.98;;;1.75;;
75926;SDS011;64605;48.296;16.416;2023-02-01T00:21:39;3.00;;;1.80;;
75926;SDS011;64605;48.296;16.416;2023-02-01T00:24:05;3.85;;;2.28;;
75926;SDS011;64605;48.296;16.416;2023-02-01T00:26:33;3.17;;;2.20;;
75926;SDS011;64605;48.296;16.416;2023-02-01T00:29:01;2.17;;;1.70;;
75926;SDS011;64605;48.296;16.416;2023-02-01T00:31:27;2.30;;;1.88;;
75926;SDS011;64605;48.296;16.416;2023-02-01T00:33:53;2.72;;;1.95;;
75926;SDS011;64605;48.296;16.416;2023-02-01T00:36:19;3.58;;;2.22;;
75926;SDS011;64605;48.296;16.416;2023-02-01T00:38:45;3.10;;;2.00;;
75926;SDS011;64605;48.296;16.416;2023-02-01T00:41:15;2.40;;;1.83;;
75926;SDS011;64605;48.296;16.416;2023-02-01T00:43:42;2.78;;;1.63;;
75926;SDS011;64605;48.296;16.416;2023-02-01T00:46:09;4.80;;;2.05;;
75926;SDS011;64605;48.296;16.416;2023-02-01T00:48:35;1.88;;;1.67;;
75926;SDS011;64605;48.296;16.416;2023-02-01T00:51:02;2.92;;;1.90;;
75926;SDS011;64605;48.296;16.416;2023-02-01T00:53:29;1.85;;;1.60;;
75926;SDS011;64605;48.296;16.416;2023-02-01T00:55:56;3.85;;;2.40;;
75926;SDS011;64605;48.296;16.416;2023-02-01T00:58:23;3.45;;;2.10;;
75926;SDS011;64605;48.296;16.416;2023-02-01T01:00:59;3.47;;;2.30;;
75926;SDS011;64605;48.296;16.416;2023-02-01T01:03:27;2.47;;;2.03;;
75926;SDS011;64605;48.296;16.416;2023-02-01T01:05:56;3.60;;;2.08;;
75926;SDS011;64605;48.296;16.416;2023-02-01T01:08:22;2.80;;;2.20;;
75926;SDS011;64605;48.296;16.416;2023-02-01T01:10:48;3.78;;;2.47;;
75926;SDS011;64605;48.296;16.416;2023-02-01T01:13:14;3.20;;;2.60;;
75926;SDS011;64605;48.296;16.416;2023-02-01T01:15:40;3.55;;;2.58;;
75926;SDS011;64605;48.296;16.416;2023-02-01T01:18:06;3.90;;;2.72;;
75926;SDS011;64605;48.296;16.416;2023-02-01T01:20:37;3.25;;;2.67;;
75926;SDS011;64605;48.296;16.416;2023-02-01T01:23:04;4.00;;;2.67;;
75926;SDS011;64605;48.296;16.416;2023-02-01T01:25:30;3.03;;;2.53;;
75926;SDS011;64605;48.296;16.416;2023-02-01T01:27:56;3.22;;;2.92;;
75926;SDS011;64605;48.296;16.416;2023-02-01T01:30:22;3.25;;;2.58;;
75926;SDS011;64605;48.296;16.416;2023-02-01T01:32:47;3.35;;;2.42;;
75926;SDS011;64605;48.296;16.416;2023-02-01T01:35:13;2.33;;;1.90;;
75926;SDS011;64605;48.296;16.416;2023-02-01T01:37:39;2.30;;;2.10;;
75926;SDS011;64605;48.296;16.416;2023-02-01T01:40:05;3.67;;;2.15;;
75926;SDS011;64605;48.296;16.416;2023-02-01T01:42:41;3.65;;;2.55;;
75926;SDS011;64605;48.296;16.416;2023-02-01T01:47:44;3.20;;;2.55;;
75926;SDS011;64605;48.296;16.416;2023-02-01T01:50:16;2.97;;;2.25;;
75926;SDS011;64605;48.296;16.416;2023-02-01T01:52:49;2.58;;;2.00;;
75926;SDS011;64605;48.296;16.416;2023-02-01T01:55:17;3.40;;;1.90;;
75926;SDS011;64605;48.296;16.416;2023-02-01T01:57:46;2.58;;;1.92;;
75926;SDS011;64605;48.296;16.416;2023-02-01T02:00:20;2.35;;;1.95;;
75926;SDS011;64605;48.296;16.416;2023-02-01T02:02:47;2.20;;;1.80;;
75926;SDS011;64605;48.296;16.416;2023-02-01T02:05:18;2.95;;;2.33;;
75926;SDS011;64605;48.296;16.416;2023-02-01T02:07:46;2.50;;;2.30;;
75926;SDS011;64605;48.296;16.416;2023-02-01T02:10:14;3.47;;;2.30;;
75926;SDS011;64605;48.296;16.416;2023-02-01T02:12:41;3.30;;;2.28;;
75926;SDS011;64605;48.296;16.416;2023-02-01T02:15:10;3.97;;;2.40;;
75926;SDS011;64605;48.296;16.416;2023-02-01T02:31:40;3.90;;;2.42;;
75926;SDS011;64605;48.296;16.416;2023-02-01T02:34:44;4.00;;;2.42;;
75926;SDS011;64605;48.296;16.416;2023-02-01T02:46:04;3.25;;;2.38;;
75926;SDS011;64605;48.296;16.416;2023-02-01T02:49:07;3.70;;;2.50;;
75926;SDS011;64605;48.296;16.416;2023-02-01T02:51:37;2.60;;;2.22;;
75926;SDS011;64605;48.296;16.416;2023-02-01T02:54:28;2.97;;;2.30;;
75926;SDS011;64605;48.296;16.416;2023-02-01T02:57:23;4.38;;;2.80;;
75926;SDS011;64605;48.296;16.416;2023-02-01T03:00:15;5.82;;;2.70;;
75926;SDS011;64605;48.296;16.416;2023-02-01T03:03:02;2.53;;;2.13;;
75926;SDS011;64605;48.296;16.416;2023-02-01T03:05:47;3.08;;;2.40;;
75926;SDS011;64605;48.296;16.416;2023-02-01T03:08:18;3.42;;;2.55;;
75926;SDS011;64605;48.296;16.416;2023-02-01T03:13:31;3.55;;;2.58;;
75926;SDS011;64605;48.296;16.416;2023-02-01T03:21:39;4.05;;;2.45;;
75926;SDS011;64605;48.296;16.416;2023-02-01T03:24:16;2.70;;;2.20;;
75926;SDS011;64605;48.296;16.416;2023-02-01T03:26:48;2.50;;;2.20;;
75926;SDS011;64605;48.296;16.416;2023-02-01T03:29:21;3.53;;;2.30;;
75926;SDS011;64605;48.296;16.416;2023-02-01T03:31:52;2.58;;;2.10;;
75926;SDS011;64605;48.296;16.416;2023-02-01T03:34:18;3.08;;;2.10;;
75926;SDS011;64605;48.296;16.416;2023-02-01T03:39:34;2.40;;;2.10;;
75926;SDS011;64605;48.296;16.416;2023-02-01T03:42:14;3.63;;;2.67;;
75926;SDS011;64605;48.296;16.416;2023-02-01T03:45:00;2.85;;;2.30;;
75926;SDS011;64605;48.296;16.416;2023-02-01T03:47:37;3.67;;;2.70;;
75926;SDS011;64605;48.296;16.416;2023-02-01T03:50:11;5.80;;;2.58;;
75926;SDS011;64605;48.296;16.416;2023-02-01T03:55:16;4.03;;;2.33;;
75926;SDS011;64605;48.296;16.416;2023-02-01T03:58:30;3.22;;;2.47;;
75926;SDS011;64605;48.296;16.416;2023-02-01T04:00:43;2.80;;;1.98;;
75926;SDS011;64605;48.296;16.416;2023-02-01T04:03:09;3.10;;;2.28;;
75926;SDS011;64605;48.296;16.416;2023-02-01T04:05:35;4.07;;;2.35;;
75926;SDS011;64605;48.296;16.416;2023-02-01T04:08:01;4.38;;;2.30;;
75926;SDS011;64605;48.296;16.416;2023-02-01T04:10:27;4.55;;;2.30;;
75926;SDS011;64605;48.296;16.416;2023-02-01T04:12:53;4.18;;;2.40;;
75926;SDS011;64605;48.296;16.416;2023-02-01T04:15:18;4.15;;;2.40;;
75926;SDS011;64605;48.296;16.416;2023-02-01T04:17:44;6.22;;;2.55;;
75926;SDS011;64605;48.296;16.416;2023-02-01T04:20:10;3.88;;;2.53;;
75926;SDS011;64605;48.296;16.416;2023-02-01T04:22:36;3.92;;;2.85;;
75926;SDS011;64605;48.296;16.416;2023-02-01T04:25:01;4.07;;;2.80;;
75926;SDS011;64605;48.296;16.416;2023-02-01T04:27:28;4.25;;;3.03;;
75926;SDS011;64605;48.296;16.416;2023-02-01T04:29:53;5.57;;;2.65;;
75926;SDS011;64605;48.296;16.416;2023-02-01T04:32:19;5.72;;;2.70;;
75926;SDS011;64605;48.296;16.416;2023-02-01T04:34:45;6.20;;;3.00;;
75926;SDS011;64605;48.296;16.416;2023-02-01T04:37:11;5.25;;;3.00;;
75926;SDS011;64605;48.296;16.416;2023-02-01T04:39:36;4.68;;;3.05;;
75926;SDS011;64605;48.296;16.416;2023-02-01T04:42:02;6.53;;;3.40;;
75926;SDS011;64605;48.296;16.416;2023-02-01T04:44:28;6.13;;;3.60;;
75926;SDS011;64605;48.296;16.416;2023-02-01T04:46:54;5.68;;;4.10;;
75926;SDS011;64605;48.296;16.416;2023-02-01T04:49:19;4.95;;;3.85;;
75926;SDS011;64605;48.296;16.416;2023-02-01T04:51:46;4.85;;;3.60;;
75926;SDS011;64605;48.296;16.416;2023-02-01T04:54:12;5.65;;;3.47;;
75926;SDS011;64605;48.296;16.416;2023-02-01T04:56:38;5.03;;;4.30;;
75926;SDS011;64605;48.296;16.416;2023-02-01T04:59:04;5.30;;;3.55;;
75926;SDS011;64605;48.296;16.416;2023-02-01T05:01:30;7.38;;;4.80;;
75926;SDS011;64605;48.296;16.416;2023-02-01T05:03:55;5.53;;;3.85;;
75926;SDS011;64605;48.296;16.416;2023-02-01T05:06:21;5.30;;;4.03;;
75926;SDS011;64605;48.296;16.416;2023-02-01T05:08:48;6.25;;;3.50;;
75926;SDS011;64605;48.296;16.416;2023-02-01T05:11:13;4.30;;;3.38;;
75926;SDS011;64605;48.296;16.416;2023-02-01T05:13:58;4.22;;;3.53;;
75926;SDS011;64605;48.296;16.416;2023-02-01T05:16:25;5.72;;;3.33;;
75926;SDS011;64605;48.296;16.416;2023-02-01T05:18:51;3.92;;;3.10;;
75926;SDS011;64605;48.296;16.416;2023-02-01T05:21:16;4.72;;;3.00;;
75926;SDS011;64605;48.296;16.416;2023-02-01T05:23:42;3.72;;;3.28;;
75926;SDS011;64605;48.296;16.416;2023-02-01T05:26:26;5.15;;;3.15;;
75926;SDS011;64605;48.296;16.416;2023-02-01T05:28:52;4.18;;;2.97;;
75926;SDS011;64605;48.296;16.416;2023-02-01T05:31:17;5.80;;;3.20;;
75926;SDS011;64605;48.296;16.416;2023-02-01T05:33:43;3.53;;;3.17;;
75926;SDS011;64605;48.296;16.416;2023-02-01T05:36:09;4.43;;;3.55;;
75926;SDS011;64605;48.296;16.416;2023-02-01T05:38:34;4.15;;;3.03;;
75926;SDS011;64605;48.296;16.416;2023-02-01T05:41:00;4.53;;;3.58;;
75926;SDS011;64605;48.296;16.416;2023-02-01T05:43:26;5.75;;;3.47;;
75926;SDS011;64605;48.296;16.416;2023-02-01T05:45:51;4.80;;;3.30;;
75926;SDS011;64605;48.296;16.416;2023-02-01T05:48:17;5.50;;;3.45;;
75926;SDS011;64605;48.296;16.416;2023-02-01T05:50:43;5.72;;;3.28;;
75926;SDS011;64605;48.296;16.416;2023-02-01T05:53:09;4.13;;;3.45;;
75926;SDS011;64605;48.296;16.416;2023-02-01T05:55:35;4.93;;;3.35;;
75926;SDS011;64605;48.296;16.416;2023-02-01T05:58:01;4.43;;;3.38;;
75926;SDS011;64605;48.296;16.416;2023-02-01T06:00:27;4.72;;;3.88;;
75926;SDS011;64605;48.296;16.416;2023-02-01T06:02:53;5.95;;;3.50;;
75926;SDS011;64605;48.296;16.416;2023-02-01T06:05:19;5.78;;;3.20;;
75926;SDS011;64605;48.296;16.416;2023-02-01T06:07:45;4.63;;;3.58;;
75926;SDS011;64605;48.296;16.416;2023-02-01T06:10:10;4.07;;;3.13;;
75926;SDS011;64605;48.296;16.416;2023-02-01T06:12:36;4.03;;;2.90;;
75926;SDS011;64605;48.296;16.416;2023-02-01T06:15:02;3.38;;;2.88;;
75926;SDS011;64605;48.296;16.416;2023-02-01T06:17:28;4.40;;;3.13;;
75926;SDS011;64605;48.296;16.416;2023-02-01T06:19:53;5.22;;;3.50;;
75926;SDS011;64605;48.296;16.416;2023-02-01T06:22:19;5.13;;;3.28;;
75926;SDS011;64605;48.296;16.416;2023-02-01T06:24:46;4.20;;;3.22;;
75926;SDS011;64605;48.296;16.416;2023-02-01T06:27:12;5.20;;;3.47;;
75926;SDS011;64605;48.296;16.416;2023-02-01T06:29:39;5.57;;;3.90;;
75926;SDS011;64605;48.296;16.416;2023-02-01T06:32:05;4.38;;;3.63;;
75926;SDS011;64605;48.296;16.416;2023-02-01T06:34:31;4.45;;;3.67;;
75926;SDS011;64605;48.296;16.416;2023-02-01T06:36:57;4.72;;;3.63;;
75926;SDS011;64605;48.296;16.416;2023-02-01T06:39:22;4.38;;;3.47;;
75926;SDS011;64605;48.296;16.416;2023-02-01T06:41:48;5.05;;;3.92;;
75926;SDS011;64605;48.296;16.416;2023-02-01T06:44:15;3.55;;;2.92;;
75926;SDS011;64605;48.296;16.416;2023-02-01T06:46:41;4.30;;;3.28;;
75926;SDS011;64605;48.296;16.416;2023-02-01T06:49:07;5.60;;;3.83;;
75926;SDS011;64605;48.296;16.416;2023-02-01T06:51:33;6.53;;;3.83;;
75926;SDS011;64605;48.296;16.416;2023-02-01T06:53:59;4.45;;;3.40;;
75926;SDS011;64605;48.296;16.416;2023-02-01T06:56:26;4.22;;;3.45;;
75926;SDS011;64605;48.296;16.416;2023-02-01T06:58:52;4.22;;;3.30;;
75926;SDS011;64605;48.296;16.416;2023-02-01T07:01:18;4.53;;;3.58;;
75926;SDS011;64605;48.296;16.416;2023-02-01T07:03:48;6.85;;;3.95;;
75926;SDS011;64605;48.296;16.416;2023-02-01T07:06:15;5.75;;;3.75;;
75926;SDS011;64605;48.296;16.416;2023-02-01T07:08:41;5.22;;;3.90;;
75926;SDS011;64605;48.296;16.416;2023-02-01T07:11:11;4.93;;;3.60;;
75926;SDS011;64605;48.296;16.416;2023-02-01T07:13:38;5.05;;;3.70;;
75926;SDS011;64605;48.296;16.416;2023-02-01T07:16:05;8.40;;;4.00;;
75926;SDS011;64605;48.296;16.416;2023-02-01T07:18:32;3.75;;;3.20;;
75926;SDS011;64605;48.296;16.416;2023-02-01T07:20:58;4.65;;;2.88;;
75926;SDS011;64605;48.296;16.416;2023-02-01T07:23:24;4.18;;;2.83;;
75926;SDS011;64605;48.296;16.416;2023-02-01T07:25:54;3.35;;;2.97;;
75926;SDS011;64605;48.296;16.416;2023-02-01T07:28:25;3.65;;;3.05;;
75926;SDS011;64605;48.296;16.416;2023-02-01T07:30:51;4.18;;;2.50;;
75926;SDS011;64605;48.296;16.416;2023-02-01T07:33:20;3.25;;;2.70;;
75926;SDS011;64605;48.296;16.416;2023-02-01T07:35:47;3.80;;;2.70;;
75926;SDS011;64605;48.296;16.416;2023-02-01T07:38:15;4.85;;;2.70;;
75926;SDS011;64605;48.296;16.416;2023-02-01T07:40:41;4.53;;;2.70;;
75926;SDS011;64605;48.296;16.416;2023-02-01T07:43:07;2.72;;;2.30;;
75926;SDS011;64605;48.296;16.416;2023-02-01T07:45:33;3.58;;;2.38;;
75926;SDS011;64605;48.296;16.416;2023-02-01T07:47:59;3.80;;;2.67;;
75926;SDS011;64605;48.296;16.416;2023-02-01T07:50:24;5.65;;;2.53;;
75926;SDS011;64605;48.296;16.416;2023-02-01T07:52:50;3.75;;;3.13;;
75926;SDS011;64605;48.296;16.416;2023-02-01T07:55:16;7.00;;;2.95;;
75926;SDS011;64605;48.296;16.416;2023-02-01T07:57:41;4.43;;;2.35;;
75926;SDS011;64605;48.296;16.416;2023-02-01T08:00:07;3.88;;;2.72;;
75926;SDS011;64605;48.296;16.416;2023-02-01T08:02:52;4.88;;;2.78;;
75926;SDS011;64605;48.296;16.416;2023-02-01T08:05:18;4.63;;;2.88;;
75926;SDS011;64605;48.296;16.416;2023-02-01T08:07:44;3.42;;;2.50;;
75926;SDS011;64605;48.296;16.416;2023-02-01T08:10:14;4.55;;;2.63;;
75926;SDS011;64605;48.296;16.416;2023-02-01T08:12:39;3.80;;;2.55;;
75926;SDS011;64605;48.296;16.416;2023-02-01T08:15:06;4.10;;;2.88;;
75926;SDS011;64605;48.296;16.416;2023-02-01T08:17:32;3.50;;;2.67;;
75926;SDS011;64605;48.296;16.416;2023-02-01T08:19:57;3.70;;;2.95;;
75926;SDS011;64605;48.296;16.416;2023-02-01T08:22:23;3.95;;;2.60;;
75926;SDS011;64605;48.296;16.416;2023-02-01T08:24:49;4.35;;;3.03;;
75926;SDS011;64605;48.296;16.416;2023-02-01T08:27:14;3.33;;;2.67;;
75926;SDS011;64605;48.296;16.416;2023-02-01T08:29:40;4.15;;;2.83;;
75926;SDS011;64605;48.296;16.416;2023-02-01T08:32:06;3.58;;;2.47;;
75926;SDS011;64605;48.296;16.416;2023-02-01T08:34:32;5.28;;;3.30;;
75926;SDS011;64605;48.296;16.416;2023-02-01T08:36:57;3.13;;;2.53;;
75926;SDS011;64605;48.296;16.416;2023-02-01T08:39:23;3.85;;;2.72;;
75926;SDS011;64605;48.296;16.416;2023-02-01T08:41:49;3.42;;;3.13;;
75926;SDS011;64605;48.296;16.416;2023-02-01T08:44:34;5.95;;;3.35;;
75926;SDS011;64605;48.296;16.416;2023-02-01T08:47:00;5.28;;;2.90;;
75926;SDS011;64605;48.296;16.416;2023-02-01T08:49:26;3.97;;;3.15;;
75926;SDS011;64605;48.296;16.416;2023-02-01T08:51:52;4.80;;;3.38;;
75926;SDS011;64605;48.296;16.416;2023-02-01T08:54:17;4.78;;;3.60;;
75926;SDS011;64605;48.296;16.416;2023-02-01T08:56:43;4.32;;;3.25;;
75926;SDS011;64605;48.296;16.416;2023-02-01T08:59:08;5.47;;;3.67;;
75926;SDS011;64605;48.296;16.416;2023-02-01T09:01:34;4.60;;;3.08;;
75926;SDS011;64605;48.296;16.416;2023-02-01T09:03:59;5.03;;;3.40;;
75926;SDS011;64605;48.296;16.416;2023-02-01T09:06:25;6.13;;;3.03;;
75926;SDS011;64605;48.296;16.416;2023-02-01T09:08:51;6.03;;;3.40;;
75926;SDS011;64605;48.296;16.416;2023-02-01T09:11:17;7.88;;;3.75;;
75926;SDS011;64605;48.296;16.416;2023-02-01T09:13:44;3.92;;;3.00;;
75926;SDS011;64605;48.296;16.416;2023-02-01T09:16:10;6.25;;;3.47;;
75926;SDS011;64605;48.296;16.416;2023-02-01T09:18:36;4.75;;;3.53;;
75926;SDS011;64605;48.296;16.416;2023-02-01T09:21:08;5.63;;;4.00;;
75926;SDS011;64605;48.296;16.416;2023-02-01T09:23:34;5.70;;;3.72;;
75926;SDS011;64605;48.296;16.416;2023-02-01T09:26:01;6.68;;;3.40;;
75926;SDS011;64605;48.296;16.416;2023-02-01T09:28:30;4.13;;;3.40;;
75926;SDS011;64605;48.296;16.416;2023-02-01T09:30:56;7.82;;;3.15;;
75926;SDS011;64605;48.296;16.416;2023-02-01T09:33:23;5.78;;;4.05;;
75926;SDS011;64605;48.296;16.416;2023-02-01T09:35:54;8.27;;;4.00;;
75926;SDS011;64605;48.296;16.416;2023-02-01T09:38:21;7.68;;;6.05;;
75926;SDS011;64605;48.296;16.416;2023-02-01T09:40:47;7.60;;;4.30;;
75926;SDS011;64605;48.296;16.416;2023-02-01T09:48:52;6.10;;;4.40;;
75926;SDS011;64605;48.296;16.416;2023-02-01T09:51:20;5.63;;;3.47;;
75926;SDS011;64605;48.296;16.416;2023-02-01T09:54:03;5.13;;;3.50;;
75926;SDS011;64605;48.296;16.416;2023-02-01T09:56:41;5.10;;;3.20;;
75926;SDS011;64605;48.296;16.416;2023-02-01T10:01:56;4.55;;;3.20;;
75926;SDS011;64605;48.296;16.416;2023-02-01T10:04:22;5.60;;;3.13;;
75926;SDS011;64605;48.296;16.416;2023-02-01T10:24:56;3.35;;;2.90;;
75926;SDS011;64605;48.296;16.416;2023-02-01T10:27:42;2.97;;;2.50;;
75926;SDS011;64605;48.296;16.416;2023-02-01T10:30:21;3.75;;;2.42;;
75926;SDS011;64605;48.296;16.416;2023-02-01T10:33:03;4.90;;;2.67;;
75926;SDS011;64605;48.296;16.416;2023-02-01T10:35:42;2.35;;;2.00;;
75926;SDS011;64605;48.296;16.416;2023-02-01T10:38:26;3.33;;;2.10;;
75926;SDS011;64605;48.296;16.416;2023-02-01T10:40:55;3.15;;;1.98;;
75926;SDS011;64605;48.296;16.416;2023-02-01T10:43:27;4.72;;;1.80;;
75926;SDS011;64605;48.296;16.416;2023-02-01T10:45:53;2.58;;;2.00;;
75926;SDS011;64605;48.296;16.416;2023-02-01T10:48:19;3.05;;;1.67;;
75926;SDS011;64605;48.296;16.416;2023-02-01T10:51:01;3.33;;;1.90;;
75926;SDS011;64605;48.296;16.416;2023-02-01T10:56:08;1.80;;;1.60;;
75926;SDS011;64605;48.296;16.416;2023-02-01T10:58:35;2.42;;;1.63;;
75926;SDS011;64605;48.296;16.416;2023-02-01T11:01:07;2.92;;;1.23;;
75926;SDS011;64605;48.296;16.416;2023-02-01T11:08:45;1.55;;;1.25;;
75926;SDS011;64605;48.296;16.416;2023-02-01T11:11:15;2.83;;;1.60;;
75926;SDS011;64605;48.296;16.416;2023-02-01T11:13:41;2.67;;;1.77;;
75926;SDS011;64605;48.296;16.416;2023-02-01T11:16:10;2.08;;;1.20;;
75926;SDS011;64605;48.296;16.416;2023-02-01T11:18:39;2.70;;;1.58;;
75926;SDS011;64605;48.296;16.416;2023-02-01T11:21:05;2.67;;;1.75;;
75926;SDS011;64605;48.296;16.416;2023-02-01T11:23:32;1.98;;;1.63;;
75926;SDS011;64605;48.296;16.416;2023-02-01T11:26:09;2.97;;;1.95;;
75926;SDS011;64605;48.296;16.416;2023-02-01T11:28:38;2.45;;;1.70;;
75926;SDS011;64605;48.296;16.416;2023-02-01T11:31:09;2.22;;;1.60;;
75926;SDS011;64605;48.296;16.416;2023-02-01T11:33:38;3.83;;;2.30;;
75926;SDS011;64605;48.296;16.416;2023-02-01T11:36:08;3.70;;;2.13;;
75926;SDS011;64605;48.296;16.416;2023-02-01T11:38:52;2.50;;;1.65;;
75926;SDS011;64605;48.296;16.416;2023-02-01T11:41:24;2.20;;;1.77;;
75926;SDS011;64605;48.296;16.416;2023-02-01T11:43:54;4.22;;;2.00;;
75926;SDS011;64605;48.296;16.416;2023-02-01T11:46:34;2.30;;;2.10;;
75926;SDS011;64605;48.296;16.416;2023-02-01T11:57:36;2.38;;;1.88;;
75926;SDS011;64605;48.296;16.416;2023-02-01T12:03:33;2.45;;;1.63;;
75926;SDS011;64605;48.296;16.416;2023-02-01T12:11:51;3.80;;;1.10;;
75926;SDS011;64605;48.296;16.416;2023-02-01T12:47:35;2.45;;;1.70;;
75926;SDS011;64605;48.296;16.416;2023-02-01T12:50:17;2.60;;;1.20;;
75926;SDS011;64605;48.296;16.416;2023-02-01T12:53:01;2.03;;;1.40;;
75926;SDS011;64605;48.296;16.416;2023-02-01T12:55:36;2.80;;;1.48;;
75926;SDS011;64605;48.296;16.416;2023-02-01T13:00:46;1.88;;;1.60;;
75926;SDS011;64605;48.296;16.416;2023-02-01T13:03:19;2.72;;;1.20;;
75926;SDS011;64605;48.296;16.416;2023-02-01T13:06:01;3.97;;;1.35;;
75926;SDS011;64605;48.296;16.416;2023-02-01T13:11:03;3.63;;;1.52;;
75926;SDS011;64605;48.296;16.416;2023-02-01T13:16:10;3.28;;;1.83;;
75926;SDS011;64605;48.296;16.416;2023-02-01T13:18:46;3.35;;;1.42;;
75926;SDS011;64605;48.296;16.416;2023-02-01T13:21:17;2.70;;;1.30;;
75926;SDS011;64605;48.296;16.416;2023-02-01T13:23:48;2.40;;;0.90;;
75926;SDS011;64605;48.296;16.416;2023-02-01T13:26:16;3.30;;;1.55;;
75926;SDS011;64605;48.296;16.416;2023-02-01T13:42:34;4.07;;;2.00;;
75926;SDS011;64605;48.296;16.416;2023-02-01T13:45:14;3.05;;;1.55;;
75926;SDS011;64605;48.296;16.416;2023-02-01T13:47:46;5.03;;;1.98;;
75926;SDS011;64605;48.296;16.416;2023-02-01T13:52:59;1.63;;;1.08;;
75926;SDS011;64605;48.296;16.416;2023-02-01T13:55:36;1.75;;;1.38;;
75926;SDS011;64605;48.296;16.416;2023-02-01T13:58:11;3.53;;;1.40;;
75926;SDS011;64605;48.296;16.416;2023-02-01T14:00:47;1.95;;;1.00;;
75926;SDS011;64605;48.296;16.416;2023-02-01T14:03:22;3.10;;;1.00;;
75926;SDS011;64605;48.296;16.416;2023-02-01T14:06:18;1.58;;;0.73;;
75926;SDS011;64605;48.296;16.416;2023-02-01T14:21:52;3.27;;;0.90;;
75926;SDS011;64605;48.296;16.416;2023-02-01T14:24:33;1.15;;;0.80;;
75926;SDS011;64605;48.296;16.416;2023-02-01T14:27:02;2.05;;;0.80;;
75926;SDS011;64605;48.296;16.416;2023-02-01T14:30:02;1.38;;;0.65;;
75926;SDS011;64605;48.296;16.416;2023-02-01T14:32:38;2.88;;;0.85;;
75926;SDS011;64605;48.296;16.416;2023-02-01T14:35:12;0.85;;;0.70;;
75926;SDS011;64605;48.296;16.416;2023-02-01T14:37:44;2.72;;;0.95;;
75926;SDS011;64605;48.296;16.416;2023-02-01T14:55:43;2.15;;;1.00;;
75926;SDS011;64605;48.296;16.416;2023-02-01T14:58:35;1.58;;;0.80;;
75926;SDS011;64605;48.296;16.416;2023-02-01T15:01:03;2.50;;;1.00;;
75926;SDS011;64605;48.296;16.416;2023-02-01T15:03:52;1.35;;;0.75;;
75926;SDS011;64605;48.296;16.416;2023-02-01T15:08:59;0.88;;;0.60;;
75926;SDS011;64605;48.296;16.416;2023-02-01T15:11:32;1.42;;;0.52;;
75926;SDS011;64605;48.296;16.416;2023-02-01T15:14:17;1.65;;;0.68;;
75926;SDS011;64605;48.296;16.416;2023-02-01T15:16:43;1.35;;;0.60;;
75926;SDS011;64605;48.296;16.416;2023-02-01T15:19:14;2.00;;;0.77;;
75926;SDS011;64605;48.296;16.416;2023-02-01T15:21:44;2.17;;;0.80;;
75926;SDS011;64605;48.296;16.416;2023-02-01T15:24:22;0.93;;;0.52;;
75926;SDS011;64605;48.296;16.416;2023-02-01T15:26:56;1.00;;;0.50;;
75926;SDS011;64605;48.296;16.416;2023-02-01T15:29:28;1.05;;;0.70;;
75926;SDS011;64605;48.296;16.416;2023-02-01T15:31:57;1.88;;;0.55;;
75926;SDS011;64605;48.296;16.416;2023-02-01T15:34:23;0.65;;;0.40;;
75926;SDS011;64605;48.296;16.416;2023-02-01T15:37:13;0.50;;;0.50;;
75926;SDS011;64605;48.296;16.416;2023-02-01T15:42:30;1.75;;;0.57;;
75926;SDS011;64605;48.296;16.416;2023-02-01T15:44:59;1.92;;;0.90;;
75926;SDS011;64605;48.296;16.416;2023-02-01T15:47:26;2.78;;;0.80;;
75926;SDS011;64605;48.296;16.416;2023-02-01T15:49:56;1.65;;;0.85;;
75926;SDS011;64605;48.296;16.416;2023-02-01T15:55:00;1.08;;;0.70;;
75926;SDS011;64605;48.296;16.416;2023-02-01T15:57:31;2.05;;;1.00;;
75926;SDS011;64605;48.296;16.416;2023-02-01T16:00:00;1.98;;;1.08;;
75926;SDS011;64605;48.296;16.416;2023-02-01T16:02:37;3.00;;;0.77;;
75926;SDS011;64605;48.296;16.416;2023-02-01T16:08:10;1.92;;;0.85;;
75926;SDS011;64605;48.296;16.416;2023-02-01T16:10:41;1.27;;;0.80;;
75926;SDS011;64605;48.296;16.416;2023-02-01T16:13:09;2.45;;;1.10;;
75926;SDS011;64605;48.296;16.416;2023-02-01T16:15:35;3.85;;;1.23;;
75926;SDS011;64605;48.296;16.416;2023-02-01T16:18:02;2.10;;;0.90;;
75926;SDS011;64605;48.296;16.416;2023-02-01T16:20:27;4.97;;;1.25;;
75926;SDS011;64605;48.296;16.416;2023-02-01T16:22:54;3.33;;;1.02;;
75926;SDS011;64605;48.296;16.416;2023-02-01T16:25:20;3.67;;;1.10;;
75926;SDS011;64605;48.296;16.416;2023-02-01T16:27:46;2.70;;;1.38;;
75926;SDS011;64605;48.296;16.416;2023-02-01T16:30:11;3.50;;;1.23;;
75926;SDS011;64605;48.296;16.416;2023-02-01T16:32:37;4.40;;;1.10;;
75926;SDS011;64605;48.296;16.416;2023-02-01T16:35:04;3.58;;;1.30;;
75926;SDS011;64605;48.296;16.416;2023-02-01T16:37:36;3.97;;;1.30;;
75926;SDS011;64605;48.296;16.416;2023-02-01T16:40:01;1.67;;;0.90;;
75926;SDS011;64605;48.296;16.416;2023-02-01T16:42:27;5.03;;;1.35;;
75926;SDS011;64605;48.296;16.416;2023-02-01T16:44:55;4.57;;;1.50;;
75926;SDS011;64605;48.296;16.416;2023-02-01T16:47:21;3.03;;;1.27;;
75926;SDS011;64605;48.296;16.416;2023-02-01T16:49:47;5.03;;;1.50;;
75926;SDS011;64605;48.296;16.416;2023-02-01T16:52:15;1.85;;;1.00;;
75926;SDS011;64605;48.296;16.416;2023-02-01T16:54:47;2.65;;;1.48;;
75926;SDS011;64605;48.296;16.416;2023-02-01T16:57:14;3.72;;;1.50;;
75926;SDS011;64605;48.296;16.416;2023-02-01T16:59:41;5.10;;;1.70;;
75926;SDS011;64605;48.296;16.416;2023-02-01T17:02:14;4.28;;;1.73;;
75926;SDS011;64605;48.296;16.416;2023-02-01T17:04:41;5.07;;;1.52;;
75926;SDS011;64605;48.296;16.416;2023-02-01T17:07:14;7.45;;;2.20;;
75926;SDS011;64605;48.296;16.416;2023-02-01T17:09:41;4.88;;;1.50;;
75926;SDS011;64605;48.296;16.416;2023-02-01T17:12:27;5.90;;;2.42;;
75926;SDS011;64605;48.296;16.416;2023-02-01T17:14:54;5.00;;;1.80;;
75926;SDS011;64605;48.296;16.416;2023-02-01T17:17:21;3.88;;;2.17;;
75926;SDS011;64605;48.296;16.416;2023-02-01T17:19:48;6.05;;;2.00;;
75926;SDS011;64605;48.296;16.416;2023-02-01T17:22:19;6.32;;;2.17;;
75926;SDS011;64605;48.296;16.416;2023-02-01T17:24:45;5.38;;;2.10;;
75926;SDS011;64605;48.296;16.416;2023-02-01T17:27:11;7.05;;;3.10;;
75926;SDS011;64605;48.296;16.416;2023-02-01T17:29:37;5.65;;;2.40;;
75926;SDS011;64605;48.296;16.416;2023-02-01T17:32:02;6.50;;;2.58;;
75926;SDS011;64605;48.296;16.416;2023-02-01T17:34:29;3.20;;;2.03;;
75926;SDS011;64605;48.296;16.416;2023-02-01T17:36:54;6.55;;;2.60;;
75926;SDS011;64605;48.296;16.416;2023-02-01T17:39:20;5.00;;;2.80;;
75926;SDS011;64605;48.296;16.416;2023-02-01T17:42:05;3.85;;;2.40;;
75926;SDS011;64605;48.296;16.416;2023-02-01T17:44:34;4.80;;;2.78;;
75926;SDS011;64605;48.296;16.416;2023-02-01T17:47:00;4.43;;;2.22;;
75926;SDS011;64605;48.296;16.416;2023-02-01T17:49:25;3.35;;;2.38;;
75926;SDS011;64605;48.296;16.416;2023-02-01T17:51:55;6.57;;;2.67;;
75926;SDS011;64605;48.296;16.416;2023-02-01T17:54:21;5.28;;;2.90;;
75926;SDS011;64605;48.296;16.416;2023-02-01T17:56:47;5.80;;;3.10;;